createdAt,value
2018-12-14T00:00:51.575Z,57.78
2018-12-14T00:01:51.576Z,57.78
2018-12-14T00:02:51.577Z,57.78
2018-12-14T00:03:51.580Z,57.78
2018-12-14T00:04:51.584Z,57.41
2018-12-14T00:05:51.586Z,56.93
2018-12-14T00:06:51.588Z,56.56
2018-12-14T00:07:51.589Z,56.46
2018-12-14T00:08:51.596Z,56.18
2018-12-14T00:09:51.594Z,56.18
2018-12-14T00:10:51.598Z,55.90
2018-12-14T00:11:51.600Z,55.52
2018-12-14T00:12:51.603Z,55.62
2018-12-14T00:13:51.604Z,55.33
2018-12-14T00:14:51.607Z,55.33
2018-12-14T00:15:51.608Z,55.43
2018-12-14T00:16:51.612Z,55.15
2018-12-14T00:17:51.615Z,55.15
2018-12-14T00:18:51.617Z,54.77
2018-12-14T00:19:51.616Z,54.21
2018-12-14T00:20:51.622Z,53.73
2018-12-14T00:21:51.626Z,53.64
2018-12-14T00:22:51.627Z,53.92
2018-12-14T00:23:51.629Z,53.73
2018-12-14T00:24:51.632Z,53.73
2018-12-14T00:25:51.635Z,53.92
2018-12-14T00:26:51.712Z,53.64
2018-12-14T00:27:51.638Z,53.64
2018-12-14T00:28:51.641Z,53.83
2018-12-14T00:29:51.642Z,54.02
2018-12-14T00:30:51.643Z,54.11
2018-12-14T00:31:51.647Z,53.83
2018-12-14T00:32:51.651Z,53.92
2018-12-14T00:33:51.652Z,54.21
2018-12-14T00:34:51.655Z,54.49
2018-12-14T00:35:51.655Z,53.92
2018-12-14T00:36:51.657Z,53.92
2018-12-14T00:37:51.662Z,53.92
2018-12-14T00:38:51.663Z,53.73
2018-12-14T00:39:51.665Z,54.11
2018-12-14T00:40:51.667Z,54.49
2018-12-14T00:41:52.116Z,54.49
2018-12-14T00:42:51.673Z,54.21
2018-12-14T00:43:51.673Z,53.64
2018-12-14T00:44:51.680Z,52.41
2018-12-14T00:45:51.681Z,52.32
2018-12-14T00:46:51.683Z,52.60
2018-12-14T00:47:51.690Z,52.13
2018-12-14T00:48:51.688Z,52.22
2018-12-14T00:49:51.689Z,52.41
2018-12-14T00:50:51.691Z,53.07
2018-12-14T00:51:51.696Z,52.98
2018-12-14T00:52:51.694Z,53.54
2018-12-14T00:53:51.696Z,53.73
2018-12-14T00:54:51.699Z,53.54
2018-12-14T00:55:51.700Z,53.26
2018-12-14T00:56:51.704Z,53.54
2018-12-14T00:57:51.706Z,53.64
2018-12-14T00:58:51.710Z,54.30
2018-12-14T00:59:51.715Z,54.39
2018-12-14T01:00:51.713Z,53.73
2018-12-14T01:01:51.715Z,53.83
2018-12-14T01:02:51.717Z,53.54
2018-12-14T01:03:51.722Z,53.45
2018-12-14T01:04:51.721Z,53.45
2018-12-14T01:05:51.723Z,53.36
2018-12-14T01:06:51.727Z,53.45
2018-12-14T01:07:51.729Z,52.98
2018-12-14T01:08:51.730Z,53.26
2018-12-14T01:09:51.732Z,52.98
2018-12-14T01:10:51.734Z,53.45
2018-12-14T01:11:58.065Z,53.36
2018-12-14T01:12:51.740Z,53.45
2018-12-14T01:13:51.743Z,52.98
2018-12-14T01:14:51.743Z,53.36
2018-12-14T01:15:51.747Z,52.41
2018-12-14T01:16:51.763Z,52.32
2018-12-14T01:17:51.751Z,52.41
2018-12-14T01:18:51.751Z,52.51
2018-12-14T01:19:51.753Z,52.41
2018-12-14T01:20:51.757Z,52.41
2018-12-14T01:21:51.757Z,52.88
2018-12-14T01:22:51.763Z,52.13
2018-12-14T01:23:51.760Z,52.13
2018-12-14T01:24:51.767Z,52.41
2018-12-14T01:25:51.771Z,52.41
2018-12-14T01:26:51.766Z,53.36
2018-12-14T01:27:51.769Z,53.07
2018-12-14T01:28:51.771Z,52.79
2018-12-14T01:29:51.775Z,52.41
2018-12-14T01:30:51.775Z,52.69
2018-12-14T01:31:51.777Z,52.41
2018-12-14T01:32:51.778Z,52.88
2018-12-14T01:33:51.828Z,52.41
2018-12-14T01:34:51.788Z,52.69
2018-12-14T01:35:51.787Z,52.32
2018-12-14T01:36:51.786Z,52.69
2018-12-14T01:37:51.788Z,52.32
2018-12-14T01:38:51.790Z,53.36
2018-12-14T01:39:51.792Z,52.98
2018-12-14T01:40:51.794Z,53.45
2018-12-14T01:41:51.796Z,53.73
2018-12-14T01:42:51.798Z,53.92
2018-12-14T01:43:51.797Z,54.49
2018-12-14T01:44:51.799Z,54.49
2018-12-14T01:45:51.868Z,54.30
2018-12-14T01:46:51.805Z,54.21
2018-12-14T01:47:51.805Z,54.11
2018-12-14T01:48:51.808Z,53.83
2018-12-14T01:49:51.811Z,53.54
2018-12-14T01:50:51.811Z,52.88
2018-12-14T01:51:51.817Z,52.51
2018-12-14T01:52:51.816Z,52.03
2018-12-14T01:53:51.816Z,51.37
2018-12-14T01:54:51.819Z,51.28
2018-12-14T01:55:51.821Z,51.18
2018-12-14T01:56:51.823Z,50.99
2018-12-14T01:57:51.821Z,50.90
2018-12-14T01:58:51.825Z,51.37
2018-12-14T01:59:51.825Z,50.99
2018-12-14T02:00:51.831Z,51.28
2018-12-14T02:01:51.832Z,51.47
2018-12-14T02:02:51.830Z,51.84
2018-12-14T02:03:51.831Z,51.66
2018-12-14T02:04:51.838Z,50.90
2018-12-14T02:05:51.835Z,50.71
2018-12-14T02:06:51.837Z,50.43
2018-12-14T02:07:51.837Z,50.81
2018-12-14T02:08:51.839Z,51.18
2018-12-14T02:09:51.846Z,51.75
2018-12-14T02:10:51.851Z,51.94
2018-12-14T02:11:51.844Z,52.03
2018-12-14T02:12:51.850Z,52.13
2018-12-14T02:13:51.848Z,52.22
2018-12-14T02:14:51.850Z,52.22
2018-12-14T02:15:51.856Z,51.75
2018-12-14T02:16:51.854Z,51.56
2018-12-14T02:17:51.859Z,51.75
2018-12-14T02:18:51.857Z,51.75
2018-12-14T02:19:51.857Z,51.75
2018-12-14T02:20:51.858Z,52.13
2018-12-14T02:21:51.861Z,51.56
2018-12-14T02:22:51.861Z,51.18
2018-12-14T02:23:51.863Z,51.56
2018-12-14T02:24:51.866Z,51.37
2018-12-14T02:25:51.866Z,51.66
2018-12-14T02:26:51.869Z,51.28
2018-12-14T02:27:51.868Z,51.09
2018-12-14T02:28:51.873Z,51.28
2018-12-14T02:29:51.872Z,51.28
2018-12-14T02:30:51.875Z,51.75
2018-12-14T02:31:51.876Z,51.28
2018-12-14T02:32:51.885Z,50.71
2018-12-14T02:33:51.879Z,50.62
2018-12-14T02:34:51.881Z,50.71
2018-12-14T02:35:51.883Z,50.52
2018-12-14T02:36:51.883Z,49.87
2018-12-14T02:37:51.884Z,50.15
2018-12-14T02:38:51.885Z,49.40
2018-12-14T02:39:51.887Z,49.11
2018-12-14T02:40:51.889Z,49.11
2018-12-14T02:41:51.892Z,49.21
2018-12-14T02:42:51.892Z,49.30
2018-12-14T02:43:51.892Z,50.05
2018-12-14T02:44:51.894Z,50.05
2018-12-14T02:45:51.899Z,50.34
2018-12-14T02:46:51.903Z,50.71
2018-12-14T02:47:51.898Z,50.71
2018-12-14T02:48:51.902Z,50.81
2018-12-14T02:49:51.902Z,50.99
2018-12-14T02:50:51.905Z,51.47
2018-12-14T02:51:51.907Z,51.56
2018-12-14T02:52:51.911Z,51.94
2018-12-14T02:53:51.909Z,51.84
2018-12-14T02:54:51.915Z,52.03
2018-12-14T02:55:51.914Z,52.41
2018-12-14T02:56:51.914Z,52.41
2018-12-14T02:57:51.914Z,51.94
2018-12-14T02:58:51.925Z,52.22
2018-12-14T02:59:51.917Z,52.13
2018-12-14T03:00:51.922Z,51.37
2018-12-14T03:01:51.920Z,50.99
2018-12-14T03:02:51.923Z,50.90
2018-12-14T03:03:51.923Z,50.24
2018-12-14T03:04:51.925Z,49.30
2018-12-14T03:05:51.931Z,48.74
2018-12-14T03:06:51.929Z,49.21
2018-12-14T03:07:51.929Z,49.11
2018-12-14T03:08:51.938Z,49.21
2018-12-14T03:09:51.933Z,49.87
2018-12-14T03:10:51.934Z,50.05
2018-12-14T03:11:51.937Z,50.24
2018-12-14T03:12:51.939Z,50.05
2018-12-14T03:13:51.937Z,49.40
2018-12-14T03:14:51.940Z,49.02
2018-12-14T03:15:51.942Z,48.74
2018-12-14T03:16:51.945Z,48.64
2018-12-14T03:17:51.943Z,48.36
2018-12-14T03:18:51.944Z,48.08
2018-12-14T03:19:51.945Z,46.94
2018-12-14T03:20:51.947Z,47.41
2018-12-14T03:21:51.951Z,47.41
2018-12-14T03:22:51.956Z,47.79
2018-12-14T03:23:51.951Z,47.60
2018-12-14T03:24:51.952Z,47.70
2018-12-14T03:25:51.959Z,48.17
2018-12-14T03:26:51.955Z,48.45
2018-12-14T03:27:51.956Z,48.27
2018-12-14T03:28:51.958Z,49.11
2018-12-14T03:29:51.961Z,49.30
2018-12-14T03:30:51.963Z,49.68
2018-12-14T03:31:51.963Z,50.05
2018-12-14T03:32:51.966Z,49.21
2018-12-14T03:33:51.965Z,49.11
2018-12-14T03:34:51.968Z,48.83
2018-12-14T03:35:51.968Z,48.55
2018-12-14T03:36:51.969Z,47.98
2018-12-14T03:37:51.971Z,47.98
2018-12-14T03:38:51.972Z,47.23
2018-12-14T03:39:51.976Z,46.94
2018-12-14T03:40:51.973Z,46.66
2018-12-14T03:41:51.975Z,46.94
2018-12-14T03:42:51.978Z,47.23
2018-12-14T03:43:51.979Z,47.70
2018-12-14T03:44:51.981Z,46.85
2018-12-14T03:45:51.988Z,47.60
2018-12-14T03:46:51.983Z,46.94
2018-12-14T03:47:51.984Z,47.41
2018-12-14T03:48:51.985Z,47.98
2018-12-14T03:49:51.988Z,47.79
2018-12-14T03:50:51.988Z,47.98
2018-12-14T03:51:51.989Z,47.89
2018-12-14T03:52:51.990Z,48.36
2018-12-14T03:53:51.993Z,48.55
2018-12-14T03:54:51.993Z,48.45
2018-12-14T03:55:51.993Z,49.11
2018-12-14T03:56:51.997Z,49.30
2018-12-14T03:57:51.997Z,49.58
2018-12-14T03:58:51.998Z,49.87
2018-12-14T03:59:52.002Z,49.96
2018-12-14T04:00:52.007Z,50.15
2018-12-14T04:01:52.002Z,50.05
2018-12-14T04:02:52.005Z,50.05
2018-12-14T04:03:52.007Z,50.15
2018-12-14T04:04:52.005Z,49.40
2018-12-14T04:05:52.008Z,49.21
2018-12-14T04:06:52.013Z,49.11
2018-12-14T04:07:52.011Z,49.21
2018-12-14T04:08:52.013Z,49.40
2018-12-14T04:09:52.013Z,49.68
2018-12-14T04:10:52.018Z,49.30
2018-12-14T04:11:52.016Z,48.93
2018-12-14T04:12:52.017Z,48.64
2018-12-14T04:13:52.018Z,48.64
2018-12-14T04:14:52.020Z,47.98
2018-12-14T04:15:52.020Z,47.89
2018-12-14T04:16:52.022Z,47.70
2018-12-14T04:17:52.025Z,48.17
2018-12-14T04:18:52.026Z,48.36
2018-12-14T04:19:52.028Z,49.27
2018-12-14T04:20:52.026Z,48.64
2018-12-14T04:21:52.029Z,49.27
2018-12-14T04:22:52.029Z,49.27
2018-12-14T04:23:52.031Z,49.75
2018-12-14T04:24:52.031Z,50.03
2018-12-14T04:25:52.033Z,50.50
2018-12-14T04:26:52.034Z,50.22
2018-12-14T04:27:52.034Z,49.84
2018-12-14T04:28:52.036Z,49.87
2018-12-14T04:29:52.041Z,49.30
2018-12-14T04:30:52.043Z,49.40
2018-12-14T04:31:52.042Z,49.18
2018-12-14T04:32:52.041Z,50.05
2018-12-14T04:33:52.043Z,50.24
2018-12-14T04:34:52.047Z,50.15
2018-12-14T04:35:52.047Z,49.84
2018-12-14T04:36:52.046Z,49.40
2018-12-14T04:37:52.047Z,48.99
2018-12-14T04:38:52.051Z,48.74
2018-12-14T04:39:52.054Z,48.64
2018-12-14T04:40:52.053Z,49.11
2018-12-14T04:41:52.054Z,49.49
2018-12-14T04:42:52.056Z,49.21
2018-12-14T04:43:52.056Z,49.40
2018-12-14T04:44:52.059Z,49.56
2018-12-14T04:45:52.062Z,49.30
2018-12-14T04:46:52.059Z,49.30
2018-12-14T04:47:52.062Z,50.03
2018-12-14T04:48:52.061Z,50.31
2018-12-14T04:49:52.067Z,50.78
2018-12-14T04:50:52.064Z,50.05
2018-12-14T04:51:52.066Z,49.96
2018-12-14T04:52:52.067Z,50.71
2018-12-14T04:53:52.068Z,50.62
2018-12-14T04:54:52.068Z,51.16
2018-12-14T04:55:52.069Z,50.97
2018-12-14T04:56:52.074Z,51.28
2018-12-14T04:57:52.073Z,51.73
2018-12-14T04:58:52.074Z,52.01
2018-12-14T04:59:52.078Z,52.13
2018-12-14T05:00:52.078Z,51.94
2018-12-14T05:01:52.082Z,52.41
2018-12-14T05:02:52.082Z,52.60
2018-12-14T05:03:52.084Z,52.13
2018-12-14T05:04:52.087Z,51.84
2018-12-14T05:05:52.085Z,52.22
2018-12-14T05:06:52.087Z,52.22
2018-12-14T05:07:52.086Z,52.22
2018-12-14T05:08:52.086Z,52.22
2018-12-14T05:09:52.086Z,52.39
2018-12-14T05:10:52.087Z,52.29
2018-12-14T05:11:52.089Z,52.32
2018-12-14T05:12:56.143Z,51.82
2018-12-14T05:13:52.094Z,52.20
2018-12-14T05:14:52.095Z,51.75
2018-12-14T05:15:52.092Z,51.26
2018-12-14T05:16:52.094Z,51.35
2018-12-14T05:17:52.103Z,52.10
2018-12-14T05:18:52.268Z,52.29
2018-12-14T05:19:52.098Z,52.95
2018-12-14T05:20:52.102Z,52.79
2018-12-14T05:21:52.102Z,52.39
2018-12-14T05:22:52.104Z,52.41
2018-12-14T05:23:52.101Z,52.10
2018-12-14T05:24:52.102Z,52.01
2018-12-14T05:25:52.106Z,52.32
2018-12-14T05:26:52.110Z,52.51
2018-12-14T05:27:52.109Z,52.51
2018-12-14T05:28:52.110Z,52.29
2018-12-14T05:29:52.114Z,52.79
2018-12-14T05:30:52.113Z,53.26
2018-12-14T05:31:52.117Z,53.17
2018-12-14T05:32:52.111Z,53.05
2018-12-14T05:33:52.115Z,53.07
2018-12-14T05:34:52.115Z,53.36
2018-12-14T05:35:52.118Z,52.58
2018-12-14T05:36:52.120Z,51.37
2018-12-14T05:37:52.119Z,50.62
2018-12-14T05:38:52.119Z,50.62
2018-12-14T05:39:52.120Z,49.84
2018-12-14T05:40:52.122Z,50.24
2018-12-14T05:41:52.124Z,49.84
2018-12-14T05:42:52.125Z,50.22
2018-12-14T05:43:52.125Z,49.84
2018-12-14T05:44:52.128Z,49.75
2018-12-14T05:45:52.127Z,49.37
2018-12-14T05:46:52.136Z,49.37
2018-12-14T05:47:52.131Z,48.90
2018-12-14T05:48:52.133Z,48.90
2018-12-14T05:49:52.134Z,48.99
2018-12-14T05:50:52.137Z,49.08
2018-12-14T05:51:52.134Z,49.18
2018-12-14T05:52:52.136Z,49.46
2018-12-14T05:53:52.139Z,49.75
2018-12-14T05:54:52.140Z,50.03
2018-12-14T05:55:52.140Z,50.03
2018-12-14T05:56:52.141Z,49.93
2018-12-14T05:57:52.141Z,49.84
2018-12-14T05:58:52.147Z,49.37
2018-12-14T05:59:52.143Z,49.27
2018-12-14T06:00:52.147Z,49.37
2018-12-14T06:01:52.146Z,49.18
2018-12-14T06:02:52.148Z,49.27
2018-12-14T06:03:52.148Z,48.80
2018-12-14T06:04:52.149Z,49.08
2018-12-14T06:05:52.152Z,49.27
2018-12-14T06:06:52.153Z,49.46
2018-12-14T06:07:52.153Z,49.65
2018-12-14T06:08:52.154Z,49.84
2018-12-14T06:09:52.160Z,49.37
2018-12-14T06:10:52.159Z,49.18
2018-12-14T06:11:52.156Z,50.12
2018-12-14T06:12:52.160Z,50.50
2018-12-14T06:13:52.163Z,50.59
2018-12-14T06:14:52.166Z,51.35
2018-12-14T06:15:52.162Z,52.20
2018-12-14T06:16:52.164Z,52.58
2018-12-14T06:17:52.167Z,52.58
2018-12-14T06:18:52.173Z,52.67
2018-12-14T06:19:52.167Z,53.33
2018-12-14T06:20:52.189Z,52.95
2018-12-14T06:21:52.171Z,53.33
2018-12-14T06:22:52.173Z,52.95
2018-12-14T06:23:52.174Z,53.17
2018-12-14T06:24:52.172Z,53.83
2018-12-14T06:25:52.178Z,53.83
2018-12-14T06:26:52.176Z,53.83
2018-12-14T06:27:52.179Z,53.14
2018-12-14T06:28:52.183Z,52.48
2018-12-14T06:29:52.179Z,52.41
2018-12-14T06:30:52.182Z,52.32
2018-12-14T06:31:52.181Z,53.17
2018-12-14T06:32:52.183Z,53.07
2018-12-14T06:33:52.184Z,53.45
2018-12-14T06:34:52.186Z,53.92
2018-12-14T06:35:52.186Z,53.64
2018-12-14T06:36:52.187Z,52.41
2018-12-14T06:37:52.189Z,51.84
2018-12-14T06:38:52.189Z,51.66
2018-12-14T06:39:52.194Z,51.09
2018-12-14T06:40:52.192Z,50.99
2018-12-14T06:41:52.192Z,51.47
2018-12-14T06:42:52.194Z,51.75
2018-12-14T06:43:52.194Z,52.13
2018-12-14T06:44:52.196Z,52.41
2018-12-14T06:45:52.200Z,52.51
2018-12-14T06:46:52.201Z,52.51
2018-12-14T06:47:52.199Z,52.69
2018-12-14T06:48:52.200Z,53.26
2018-12-14T06:49:52.202Z,53.92
2018-12-14T06:50:52.203Z,53.92
2018-12-14T06:51:52.223Z,54.49
2018-12-14T06:52:52.207Z,54.39
2018-12-14T06:53:52.207Z,54.96
2018-12-14T06:54:52.208Z,55.80
2018-12-14T06:55:52.207Z,56.09
2018-12-14T06:56:52.209Z,56.75
2018-12-14T06:57:52.213Z,56.75
2018-12-14T06:58:52.211Z,56.56
2018-12-14T06:59:52.213Z,56.09
2018-12-14T07:00:52.214Z,56.46
2018-12-14T07:01:52.219Z,56.18
2018-12-14T07:02:52.216Z,56.65
2018-12-14T07:03:52.219Z,56.84
2018-12-14T07:04:52.218Z,56.37
2018-12-14T07:05:52.222Z,56.56
2018-12-14T07:06:52.223Z,56.84
2018-12-14T07:07:52.223Z,56.56
2018-12-14T07:08:52.224Z,57.12
2018-12-14T07:09:52.226Z,57.31
2018-12-14T07:10:52.227Z,57.03
2018-12-14T07:11:52.228Z,56.56
2018-12-14T07:12:52.226Z,56.56
2018-12-14T07:13:52.230Z,56.75
2018-12-14T07:14:52.232Z,56.09
2018-12-14T07:15:52.232Z,55.99
2018-12-14T07:16:52.234Z,54.68
2018-12-14T07:17:52.235Z,53.92
2018-12-14T07:18:52.239Z,53.07
2018-12-14T07:19:52.238Z,53.26
2018-12-14T07:20:52.239Z,53.36
2018-12-14T07:21:52.241Z,53.83
2018-12-14T07:22:52.240Z,53.83
2018-12-14T07:23:52.243Z,53.73
2018-12-14T07:24:52.253Z,53.92
2018-12-14T07:25:52.245Z,54.49
2018-12-14T07:26:52.246Z,55.43
2018-12-14T07:27:52.254Z,55.99
2018-12-14T07:28:52.248Z,54.96
2018-12-14T07:29:52.251Z,54.39
2018-12-14T07:30:52.253Z,53.45
2018-12-14T07:31:52.254Z,53.07
2018-12-14T07:32:52.256Z,53.07
2018-12-14T07:33:52.256Z,54.11
2018-12-14T07:34:52.256Z,54.02
2018-12-14T07:35:52.258Z,53.73
2018-12-14T07:36:52.258Z,54.11
2018-12-14T07:37:52.263Z,55.05
2018-12-14T07:38:52.264Z,54.86
2018-12-14T07:39:52.262Z,55.99
2018-12-14T07:40:52.264Z,57.12
2018-12-14T07:41:52.265Z,57.88
2018-12-14T07:42:52.269Z,58.26
2018-12-14T07:43:52.269Z,57.97
2018-12-14T07:44:52.391Z,56.46
2018-12-14T07:45:52.274Z,54.49
2018-12-14T07:46:52.272Z,52.98
2018-12-14T07:47:52.272Z,52.51
2018-12-14T07:48:52.276Z,52.41
2018-12-14T07:49:52.275Z,53.36
2018-12-14T07:50:52.281Z,53.73
2018-12-14T07:51:52.280Z,54.49
2018-12-14T07:52:52.280Z,54.86
2018-12-14T07:53:52.284Z,55.05
2018-12-14T07:54:52.282Z,55.33
2018-12-14T07:55:52.283Z,56.75
2018-12-14T07:56:52.285Z,57.88
2018-12-14T07:57:52.287Z,58.54
2018-12-14T07:58:52.289Z,59.39
2018-12-14T07:59:52.290Z,60.05
2018-12-14T08:00:52.292Z,60.71
2018-12-14T08:01:52.295Z,61.08
2018-12-14T08:02:52.295Z,59.11
2018-12-14T08:03:52.294Z,57.78
2018-12-14T08:04:52.295Z,55.90
2018-12-14T08:05:52.297Z,55.52
2018-12-14T08:06:52.299Z,55.99
2018-12-14T08:07:52.299Z,57.22
2018-12-14T08:08:52.303Z,58.35
2018-12-14T08:09:52.304Z,58.63
2018-12-14T08:10:52.305Z,59.39
2018-12-14T08:11:52.307Z,59.39
2018-12-14T08:12:52.309Z,59.48
2018-12-14T08:13:52.308Z,59.30
2018-12-14T08:14:52.308Z,59.48
2018-12-14T08:15:52.310Z,60.05
2018-12-14T08:16:52.314Z,60.14
2018-12-14T08:17:52.316Z,59.95
2018-12-14T08:18:52.317Z,59.01
2018-12-14T08:19:52.321Z,58.07
2018-12-14T08:20:52.323Z,57.97
2018-12-14T08:21:52.321Z,57.60
2018-12-14T08:22:52.323Z,58.26
2018-12-14T08:23:52.322Z,58.63
2018-12-14T08:24:52.336Z,58.45
2018-12-14T08:25:52.327Z,59.11
2018-12-14T08:26:52.325Z,58.73
2018-12-14T08:27:52.329Z,58.82
2018-12-14T08:28:52.328Z,58.73
2018-12-14T08:29:52.334Z,59.01
2018-12-14T08:30:52.335Z,58.73
2018-12-14T08:31:52.333Z,58.54
2018-12-14T08:32:52.339Z,57.78
2018-12-14T08:33:52.340Z,57.22
2018-12-14T08:34:52.342Z,56.84
2018-12-14T08:35:52.342Z,56.84
2018-12-14T08:36:52.345Z,56.75
2018-12-14T08:37:52.343Z,56.65
2018-12-14T08:38:52.351Z,56.21
2018-12-14T08:39:52.348Z,56.68
2018-12-14T08:40:52.413Z,56.77
2018-12-14T08:41:52.353Z,56.49
2018-12-14T08:42:52.357Z,56.59
2018-12-14T08:43:52.359Z,56.30
2018-12-14T08:44:52.362Z,56.02
2018-12-14T08:45:52.368Z,56.05
2018-12-14T08:46:52.369Z,55.58
2018-12-14T08:47:52.368Z,55.30
2018-12-14T08:48:52.373Z,55.30
2018-12-14T08:49:52.374Z,55.30
2018-12-14T08:50:52.381Z,55.58
2018-12-14T08:51:52.381Z,57.75
2018-12-14T08:52:52.387Z,59.17
2018-12-14T08:53:52.393Z,59.26
2018-12-14T08:54:52.397Z,59.54
2018-12-14T08:55:52.397Z,58.53
2018-12-14T08:56:52.401Z,57.78
2018-12-14T08:57:52.409Z,56.65
2018-12-14T08:58:52.413Z,56.65
2018-12-14T08:59:52.416Z,55.98
2018-12-14T09:00:52.417Z,54.94
2018-12-14T09:01:52.422Z,53.91
2018-12-14T09:02:52.426Z,53.63
2018-12-14T09:03:52.429Z,54.38
2018-12-14T09:04:52.434Z,56.46
2018-12-14T09:05:52.440Z,56.55
2018-12-14T09:06:52.443Z,54.75
2018-12-14T09:07:52.447Z,52.59
2018-12-14T09:08:52.452Z,50.13
2018-12-14T09:09:52.460Z,49.76
2018-12-14T09:10:52.460Z,51.54
2018-12-14T09:11:52.467Z,52.30
2018-12-14T09:12:52.468Z,52.59
2018-12-14T09:13:52.472Z,53.34
2018-12-14T09:14:52.478Z,53.06
2018-12-14T09:15:52.482Z,53.72
2018-12-14T09:16:52.486Z,52.96
2018-12-14T09:17:52.493Z,51.67
2018-12-14T09:18:52.495Z,50.44
2018-12-14T09:19:52.501Z,48.65
2018-12-14T09:20:52.507Z,48.62
2018-12-14T09:21:52.509Z,48.93
2018-12-14T09:22:52.515Z,48.18
2018-12-14T09:23:52.520Z,47.96
2018-12-14T09:24:52.523Z,48.05
2018-12-14T09:25:52.526Z,47.96
2018-12-14T09:26:52.533Z,48.90
2018-12-14T09:27:52.537Z,49.28
2018-12-14T09:28:52.542Z,49.49
2018-12-14T09:29:52.546Z,49.40
2018-12-14T09:30:52.552Z,47.70
2018-12-14T09:31:52.557Z,46.92
2018-12-14T09:32:52.559Z,47.58
2018-12-14T09:33:52.567Z,48.43
2018-12-14T09:34:52.571Z,50.32
2018-12-14T09:35:52.577Z,50.42
2018-12-14T09:36:52.578Z,50.72
2018-12-14T09:37:52.586Z,50.13
2018-12-14T09:38:52.588Z,49.85
2018-12-14T09:39:52.594Z,50.42
2018-12-14T09:40:52.597Z,51.07
2018-12-14T09:41:52.604Z,52.11
2018-12-14T09:42:52.608Z,51.26
2018-12-14T09:43:54.528Z,52.23
2018-12-14T09:44:52.619Z,52.70
2018-12-14T09:45:52.622Z,51.01
2018-12-14T09:46:52.628Z,50.16
2018-12-14T09:47:52.632Z,49.78
2018-12-14T09:48:52.639Z,51.20
2018-12-14T09:49:52.643Z,50.91
2018-12-14T09:50:52.647Z,49.40
2018-12-14T09:51:52.653Z,50.06
2018-12-14T09:52:52.658Z,50.13
2018-12-14T09:53:52.668Z,50.06
2018-12-14T09:54:52.670Z,49.87
2018-12-14T09:55:52.674Z,50.35
2018-12-14T09:56:52.681Z,50.72
2018-12-14T09:57:52.685Z,51.01
2018-12-14T09:58:52.690Z,49.11
2018-12-14T09:59:52.695Z,48.48
2018-12-14T10:00:52.706Z,48.57
2018-12-14T10:01:52.708Z,48.65
2018-12-14T10:02:52.713Z,48.48
2018-12-14T10:03:52.718Z,47.91
2018-12-14T10:04:52.725Z,47.53
2018-12-14T10:05:52.728Z,46.78
2018-12-14T10:06:52.734Z,48.29
2018-12-14T10:07:52.740Z,48.57
2018-12-14T10:08:52.746Z,48.76
2018-12-14T10:09:52.751Z,49.35
2018-12-14T10:10:52.760Z,48.39
2018-12-14T10:11:55.258Z,47.72
2018-12-14T10:12:52.770Z,47.91
2018-12-14T10:13:52.778Z,47.23
2018-12-14T10:14:52.783Z,48.01
2018-12-14T10:15:52.790Z,47.44
2018-12-14T10:16:52.797Z,47.53
2018-12-14T10:17:52.803Z,48.10
2018-12-14T10:18:52.808Z,47.04
2018-12-14T10:19:52.814Z,47.25
2018-12-14T10:20:52.820Z,46.33
2018-12-14T10:21:52.830Z,45.20
2018-12-14T10:22:52.834Z,45.29
2018-12-14T10:23:52.840Z,47.94
2018-12-14T10:24:52.846Z,45.39
2018-12-14T10:25:52.853Z,45.17
2018-12-14T10:26:52.860Z,44.51
2018-12-14T10:27:52.866Z,44.98
2018-12-14T10:28:52.873Z,45.76
2018-12-14T10:29:52.880Z,44.60
2018-12-14T10:30:52.887Z,45.08
2018-12-14T10:31:52.894Z,46.99
2018-12-14T10:32:52.901Z,46.99
2018-12-14T10:33:52.909Z,45.45
2018-12-14T10:34:52.920Z,46.61
2018-12-14T10:35:52.921Z,44.98
2018-12-14T10:36:52.930Z,43.57
2018-12-14T10:37:52.936Z,44.51
2018-12-14T10:38:52.947Z,45.45
2018-12-14T10:39:52.951Z,46.50
2018-12-14T10:40:52.960Z,48.22
2018-12-14T10:41:52.966Z,47.47
2018-12-14T10:42:52.971Z,46.90
2018-12-14T10:43:52.978Z,45.79
2018-12-14T10:44:52.987Z,41.89
2018-12-14T10:45:52.997Z,40.56
2018-12-14T10:46:53.002Z,41.77
2018-12-14T10:47:53.009Z,44.13
2018-12-14T10:48:53.015Z,44.32
2018-12-14T10:49:53.026Z,45.08
2018-12-14T10:50:53.031Z,46.12
2018-12-14T10:51:53.038Z,46.97
2018-12-14T10:52:53.046Z,46.97
2018-12-14T10:53:53.055Z,46.40
2018-12-14T10:54:53.064Z,46.14
2018-12-14T10:55:53.070Z,46.45
2018-12-14T10:56:53.076Z,45.41
2018-12-14T10:57:53.084Z,43.87
2018-12-14T10:58:53.092Z,44.53
2018-12-14T10:59:53.101Z,47.56
2018-12-14T11:00:53.107Z,46.99
2018-12-14T11:01:53.116Z,46.80
2018-12-14T11:02:53.125Z,47.06
2018-12-14T11:03:53.130Z,46.80
2018-12-14T11:04:53.139Z,48.67
2018-12-14T11:05:53.147Z,48.01
2018-12-14T11:06:53.154Z,46.97
2018-12-14T11:07:53.162Z,46.78
2018-12-14T11:08:53.170Z,46.37
2018-12-14T11:09:53.178Z,48.01
2018-12-14T11:10:53.187Z,46.78
2018-12-14T11:11:53.192Z,46.78
2018-12-14T11:12:53.200Z,46.99
2018-12-14T11:13:53.208Z,47.09
2018-12-14T11:14:53.216Z,47.09
2018-12-14T11:15:53.223Z,47.16
2018-12-14T11:16:53.232Z,46.61
2018-12-14T11:17:53.239Z,47.66
2018-12-14T11:18:53.247Z,48.41
2018-12-14T11:19:53.256Z,48.69
2018-12-14T11:20:53.266Z,46.88
2018-12-14T11:21:53.273Z,46.33
2018-12-14T11:22:53.284Z,46.52
2018-12-14T11:23:53.287Z,46.80
2018-12-14T11:24:53.295Z,46.90
2018-12-14T11:25:53.301Z,46.12
2018-12-14T11:26:53.664Z,46.99
2018-12-14T11:27:53.346Z,46.71
2018-12-14T11:28:53.331Z,46.61
2018-12-14T11:29:53.339Z,47.18
2018-12-14T11:30:53.352Z,47.06
2018-12-14T11:31:53.352Z,48.69
2018-12-14T11:32:53.359Z,48.69
2018-12-14T11:33:53.371Z,47.94
2018-12-14T11:34:53.374Z,47.66
2018-12-14T11:35:53.381Z,49.16
2018-12-14T11:36:53.390Z,50.23
2018-12-14T11:37:53.400Z,46.23
2018-12-14T11:38:53.404Z,45.86
2018-12-14T11:39:53.412Z,47.66
2018-12-14T11:40:53.420Z,47.18
2018-12-14T11:41:53.429Z,47.09
2018-12-14T11:42:53.503Z,45.20
2018-12-14T11:43:53.444Z,45.31
2018-12-14T11:44:53.458Z,46.73
2018-12-14T11:45:53.465Z,46.45
2018-12-14T11:46:53.472Z,46.61
2018-12-14T11:47:53.479Z,46.36
2018-12-14T11:48:53.488Z,48.25
2018-12-14T11:49:53.498Z,48.13
2018-12-14T11:50:53.566Z,47.56
2018-12-14T11:51:53.513Z,50.49
2018-12-14T11:52:53.518Z,48.79
2018-12-14T11:53:53.529Z,49.35
2018-12-14T11:54:53.535Z,51.18
2018-12-14T11:55:53.544Z,51.46
2018-12-14T11:56:53.554Z,49.35
2018-12-14T11:57:53.564Z,47.68
2018-12-14T11:58:53.569Z,47.28
2018-12-14T11:59:53.579Z,46.80
2018-12-14T12:00:53.634Z,47.30
2018-12-14T12:01:53.596Z,47.75
2018-12-14T12:02:53.605Z,48.63
2018-12-14T12:03:53.610Z,48.72
2018-12-14T12:04:53.620Z,46.83
2018-12-14T12:05:53.626Z,46.99
2018-12-14T12:06:53.635Z,47.47
2018-12-14T12:07:53.644Z,47.56
2018-12-14T12:08:53.651Z,47.47
2018-12-14T12:09:53.661Z,46.42
2018-12-14T12:10:53.673Z,47.37
2018-12-14T12:11:53.682Z,48.06
2018-12-14T12:12:53.690Z,48.63
2018-12-14T12:13:53.697Z,49.19
2018-12-14T12:14:53.705Z,49.29
2018-12-14T12:15:53.713Z,47.39
2018-12-14T12:16:53.722Z,48.06
2018-12-14T12:17:53.747Z,50.33
2018-12-14T12:18:53.739Z,50.14
2018-12-14T12:19:53.749Z,49.66
2018-12-14T12:20:53.759Z,48.82
2018-12-14T12:21:53.768Z,48.06
2018-12-14T12:22:53.773Z,46.66
2018-12-14T12:23:55.370Z,45.34
2018-12-14T12:24:53.799Z,45.69
2018-12-14T12:25:53.802Z,45.79
2018-12-14T12:26:53.809Z,46.73
2018-12-14T12:27:53.821Z,46.26
2018-12-14T12:28:53.830Z,48.44
2018-12-14T12:29:53.837Z,48.15
2018-12-14T12:30:53.855Z,47.20
2018-12-14T12:31:53.856Z,47.61
2018-12-14T12:32:53.864Z,47.91
2018-12-14T12:33:53.874Z,45.26
2018-12-14T12:34:53.881Z,43.65
2018-12-14T12:35:53.891Z,43.94
2018-12-14T12:36:53.904Z,45.07
2018-12-14T12:37:53.911Z,45.90
2018-12-14T12:38:53.919Z,46.00
2018-12-14T12:39:53.936Z,46.64
2018-12-14T12:40:53.939Z,47.61
2018-12-14T12:41:53.949Z,46.88
2018-12-14T12:42:53.958Z,46.37
2018-12-14T12:43:53.969Z,45.81
2018-12-14T12:44:53.980Z,45.53
2018-12-14T12:45:53.994Z,47.89
2018-12-14T12:46:54.002Z,46.37
2018-12-14T12:47:54.005Z,46.12
2018-12-14T12:48:54.017Z,45.15
2018-12-14T12:49:54.028Z,45.07
2018-12-14T12:50:54.038Z,44.48
2018-12-14T12:51:54.048Z,44.58
2018-12-14T12:52:54.057Z,46.37